sensor_id;sensor_type;location;lat;lon;timestamp;P1;durP1;ratioP1;P2;durP2;ratioP2
36213;SDS011;37652;50.400;30.628;2023-04-06T00:01:27;20.13;;;14.30;;
36213;SDS011;37652;50.400;30.628;2023-04-06T00:03:27;18.83;;;13.30;;
36213;SDS011;37652;50.400;30.628;2023-04-06T00:05:28;17.95;;;13.65;;
36213;SDS011;37652;50.400;30.628;2023-04-06T00:07:30;20.73;;;14.15;;
36213;SDS011;37652;50.400;30.628;2023-04-06T00:09:33;18.92;;;13.88;;
36213;SDS011;37652;50.400;30.628;2023-04-06T00:11:34;20.98;;;13.13;;
36213;SDS011;37652;50.400;30.628;2023-04-06T00:13:34;19.58;;;13.50;;
36213;SDS011;37652;50.400;30.628;2023-04-06T00:15:35;20.42;;;13.63;;
36213;SDS011;37652;50.400;30.628;2023-04-06T00:17:36;20.30;;;14.40;;
36213;SDS011;37652;50.400;30.628;2023-04-06T00:19:37;20.27;;;13.82;;
36213;SDS011;37652;50.400;30.628;2023-04-06T00:21:37;19.75;;;13.32;;
36213;SDS011;37652;50.400;30.628;2023-04-06T00:23:38;22.20;;;14.05;;
36213;SDS011;37652;50.400;30.628;2023-04-06T00:25:39;20.13;;;13.85;;
36213;SDS011;37652;50.400;30.628;2023-04-06T00:27:40;23.55;;;14.45;;
36213;SDS011;37652;50.400;30.628;2023-04-06T00:29:41;19.42;;;13.93;;
36213;SDS011;37652;50.400;30.628;2023-04-06T00:31:42;21.42;;;14.13;;
36213;SDS011;37652;50.400;30.628;2023-04-06T00:33:43;21.48;;;14.80;;
36213;SDS011;37652;50.400;30.628;2023-04-06T00:35:44;25.40;;;13.38;;
36213;SDS011;37652;50.400;30.628;2023-04-06T00:37:46;20.45;;;13.45;;
36213;SDS011;37652;50.400;30.628;2023-04-06T00:39:48;24.40;;;14.65;;
36213;SDS011;37652;50.400;30.628;2023-04-06T00:41:49;21.60;;;13.85;;
36213;SDS011;37652;50.400;30.628;2023-04-06T00:43:53;22.88;;;14.38;;
36213;SDS011;37652;50.400;30.628;2023-04-06T00:45:54;23.83;;;15.80;;
36213;SDS011;37652;50.400;30.628;2023-04-06T00:47:55;25.67;;;14.95;;
36213;SDS011;37652;50.400;30.628;2023-04-06T00:49:56;22.73;;;14.70;;
36213;SDS011;37652;50.400;30.628;2023-04-06T00:51:57;23.27;;;14.90;;
36213;SDS011;37652;50.400;30.628;2023-04-06T00:53:58;23.27;;;15.18;;
36213;SDS011;37652;50.400;30.628;2023-04-06T00:55:58;26.05;;;14.82;;
36213;SDS011;37652;50.400;30.628;2023-04-06T00:57:59;19.77;;;14.48;;
36213;SDS011;37652;50.400;30.628;2023-04-06T01:00:01;26.55;;;16.15;;
36213;SDS011;37652;50.400;30.628;2023-04-06T01:02:02;21.13;;;14.23;;
36213;SDS011;37652;50.400;30.628;2023-04-06T01:04:03;25.23;;;14.82;;
36213;SDS011;37652;50.400;30.628;2023-04-06T01:06:04;21.92;;;14.55;;
36213;SDS011;37652;50.400;30.628;2023-04-06T01:08:05;21.38;;;15.38;;
36213;SDS011;37652;50.400;30.628;2023-04-06T01:10:06;22.55;;;15.13;;
36213;SDS011;37652;50.400;30.628;2023-04-06T01:12:08;19.98;;;13.82;;
36213;SDS011;37652;50.400;30.628;2023-04-06T01:14:09;20.88;;;14.38;;
36213;SDS011;37652;50.400;30.628;2023-04-06T01:18:11;22.20;;;14.30;;
36213;SDS011;37652;50.400;30.628;2023-04-06T01:20:11;20.98;;;14.55;;
36213;SDS011;37652;50.400;30.628;2023-04-06T01:22:14;27.33;;;16.77;;
36213;SDS011;37652;50.400;30.628;2023-04-06T01:24:16;24.50;;;14.75;;
36213;SDS011;37652;50.400;30.628;2023-04-06T01:26:16;20.38;;;13.90;;
36213;SDS011;37652;50.400;30.628;2023-04-06T01:28:17;25.92;;;14.38;;
36213;SDS011;37652;50.400;30.628;2023-04-06T01:30:18;27.98;;;14.70;;
36213;SDS011;37652;50.400;30.628;2023-04-06T01:32:19;23.65;;;14.90;;
36213;SDS011;37652;50.400;30.628;2023-04-06T01:34:20;23.67;;;15.07;;
36213;SDS011;37652;50.400;30.628;2023-04-06T01:36:21;23.05;;;15.98;;
36213;SDS011;37652;50.400;30.628;2023-04-06T01:38:22;21.20;;;14.57;;
36213;SDS011;37652;50.400;30.628;2023-04-06T01:40:23;22.45;;;14.80;;
36213;SDS011;37652;50.400;30.628;2023-04-06T01:42:24;23.30;;;14.82;;
36213;SDS011;37652;50.400;30.628;2023-04-06T01:44:26;25.30;;;15.63;;
36213;SDS011;37652;50.400;30.628;2023-04-06T01:46:26;23.50;;;14.95;;
36213;SDS011;37652;50.400;30.628;2023-04-06T01:48:27;21.70;;;13.43;;
36213;SDS011;37652;50.400;30.628;2023-04-06T01:50:28;22.38;;;14.68;;
36213;SDS011;37652;50.400;30.628;2023-04-06T01:52:29;23.63;;;14.90;;
36213;SDS011;37652;50.400;30.628;2023-04-06T01:54:30;26.45;;;14.77;;
36213;SDS011;37652;50.400;30.628;2023-04-06T01:56:31;25.02;;;15.18;;
36213;SDS011;37652;50.400;30.628;2023-04-06T01:58:31;21.85;;;14.43;;
36213;SDS011;37652;50.400;30.628;2023-04-06T02:00:32;21.25;;;14.40;;
36213;SDS011;37652;50.400;30.628;2023-04-06T02:02:33;22.65;;;14.77;;
36213;SDS011;37652;50.400;30.628;2023-04-06T02:04:34;25.15;;;14.27;;
36213;SDS011;37652;50.400;30.628;2023-04-06T02:06:34;23.40;;;13.70;;
36213;SDS011;37652;50.400;30.628;2023-04-06T02:08:36;24.65;;;16.73;;
36213;SDS011;37652;50.400;30.628;2023-04-06T02:10:36;23.33;;;14.63;;
36213;SDS011;37652;50.400;30.628;2023-04-06T02:12:37;23.90;;;15.40;;
36213;SDS011;37652;50.400;30.628;2023-04-06T02:14:38;24.35;;;14.10;;
36213;SDS011;37652;50.400;30.628;2023-04-06T02:16:39;24.60;;;15.32;;
36213;SDS011;37652;50.400;30.628;2023-04-06T02:18:40;21.65;;;14.40;;
36213;SDS011;37652;50.400;30.628;2023-04-06T02:20:41;24.48;;;14.55;;
36213;SDS011;37652;50.400;30.628;2023-04-06T02:22:41;23.77;;;14.38;;
36213;SDS011;37652;50.400;30.628;2023-04-06T02:24:42;22.73;;;15.02;;
36213;SDS011;37652;50.400;30.628;2023-04-06T02:26:43;25.67;;;16.13;;
36213;SDS011;37652;50.400;30.628;2023-04-06T02:28:44;21.20;;;14.32;;
36213;SDS011;37652;50.400;30.628;2023-04-06T02:30:45;24.67;;;15.23;;
36213;SDS011;37652;50.400;30.628;2023-04-06T02:32:46;22.77;;;13.70;;
36213;SDS011;37652;50.400;30.628;2023-04-06T02:34:47;22.15;;;14.70;;
36213;SDS011;37652;50.400;30.628;2023-04-06T02:36:48;20.60;;;13.90;;
36213;SDS011;37652;50.400;30.628;2023-04-06T02:38:48;25.48;;;15.13;;
36213;SDS011;37652;50.400;30.628;2023-04-06T02:40:49;21.38;;;14.55;;
36213;SDS011;37652;50.400;30.628;2023-04-06T02:42:50;26.13;;;15.82;;
36213;SDS011;37652;50.400;30.628;2023-04-06T02:44:51;24.90;;;16.02;;
36213;SDS011;37652;50.400;30.628;2023-04-06T02:46:51;20.38;;;13.90;;
36213;SDS011;37652;50.400;30.628;2023-04-06T02:48:52;24.10;;;14.13;;
36213;SDS011;37652;50.400;30.628;2023-04-06T02:50:53;21.38;;;13.85;;
36213;SDS011;37652;50.400;30.628;2023-04-06T02:52:54;23.67;;;14.73;;
36213;SDS011;37652;50.400;30.628;2023-04-06T02:54:55;22.88;;;14.40;;
36213;SDS011;37652;50.400;30.628;2023-04-06T02:56:56;21.83;;;13.80;;
36213;SDS011;37652;50.400;30.628;2023-04-06T02:58:57;22.15;;;14.18;;
36213;SDS011;37652;50.400;30.628;2023-04-06T03:00:57;20.58;;;13.90;;
36213;SDS011;37652;50.400;30.628;2023-04-06T03:02:58;22.17;;;13.80;;
36213;SDS011;37652;50.400;30.628;2023-04-06T03:04:59;20.52;;;14.40;;
36213;SDS011;37652;50.400;30.628;2023-04-06T03:07:00;22.60;;;12.80;;
36213;SDS011;37652;50.400;30.628;2023-04-06T03:09:01;21.75;;;12.68;;
36213;SDS011;37652;50.400;30.628;2023-04-06T03:11:02;20.10;;;13.73;;
36213;SDS011;37652;50.400;30.628;2023-04-06T03:13:03;22.40;;;14.02;;
36213;SDS011;37652;50.400;30.628;2023-04-06T03:15:03;21.85;;;13.02;;
36213;SDS011;37652;50.400;30.628;2023-04-06T03:17:05;22.48;;;13.60;;
36213;SDS011;37652;50.400;30.628;2023-04-06T03:19:05;20.38;;;12.82;;
36213;SDS011;37652;50.400;30.628;2023-04-06T03:21:06;20.77;;;14.40;;
36213;SDS011;37652;50.400;30.628;2023-04-06T03:23:07;21.73;;;12.60;;
36213;SDS011;37652;50.400;30.628;2023-04-06T03:25:08;21.83;;;14.60;;
36213;SDS011;37652;50.400;30.628;2023-04-06T03:27:09;21.25;;;13.07;;
36213;SDS011;37652;50.400;30.628;2023-04-06T03:29:10;19.85;;;13.02;;
36213;SDS011;37652;50.400;30.628;2023-04-06T03:31:10;19.30;;;12.63;;
36213;SDS011;37652;50.400;30.628;2023-04-06T03:33:11;23.27;;;13.80;;
36213;SDS011;37652;50.400;30.628;2023-04-06T03:35:12;21.55;;;13.07;;
36213;SDS011;37652;50.400;30.628;2023-04-06T03:37:12;21.00;;;12.68;;
36213;SDS011;37652;50.400;30.628;2023-04-06T03:39:13;21.58;;;14.13;;
36213;SDS011;37652;50.400;30.628;2023-04-06T03:41:14;19.98;;;12.23;;
36213;SDS011;37652;50.400;30.628;2023-04-06T03:43:15;18.45;;;13.18;;
36213;SDS011;37652;50.400;30.628;2023-04-06T03:45:16;14.50;;;11.23;;
36213;SDS011;37652;50.400;30.628;2023-04-06T03:47:17;18.52;;;12.52;;
36213;SDS011;37652;50.400;30.628;2023-04-06T03:49:18;18.15;;;12.75;;
36213;SDS011;37652;50.400;30.628;2023-04-06T03:51:18;20.08;;;11.63;;
36213;SDS011;37652;50.400;30.628;2023-04-06T03:53:19;20.08;;;11.73;;
36213;SDS011;37652;50.400;30.628;2023-04-06T03:55:20;21.92;;;12.20;;
36213;SDS011;37652;50.400;30.628;2023-04-06T03:57:21;20.20;;;12.70;;
36213;SDS011;37652;50.400;30.628;2023-04-06T03:59:22;18.38;;;11.48;;
36213;SDS011;37652;50.400;30.628;2023-04-06T04:01:23;19.92;;;12.20;;
36213;SDS011;37652;50.400;30.628;2023-04-06T04:05:27;18.25;;;12.75;;
36213;SDS011;37652;50.400;30.628;2023-04-06T04:07:28;17.05;;;11.82;;
36213;SDS011;37652;50.400;30.628;2023-04-06T04:09:29;16.88;;;11.32;;
36213;SDS011;37652;50.400;30.628;2023-04-06T04:11:30;20.27;;;11.88;;
36213;SDS011;37652;50.400;30.628;2023-04-06T04:13:31;19.00;;;12.45;;
36213;SDS011;37652;50.400;30.628;2023-04-06T04:15:32;18.48;;;12.20;;
36213;SDS011;37652;50.400;30.628;2023-04-06T04:17:32;20.00;;;12.90;;
36213;SDS011;37652;50.400;30.628;2023-04-06T04:19:33;18.08;;;10.65;;
36213;SDS011;37652;50.400;30.628;2023-04-06T04:21:41;16.50;;;11.25;;
36213;SDS011;37652;50.400;30.628;2023-04-06T04:23:44;18.67;;;11.73;;
36213;SDS011;37652;50.400;30.628;2023-04-06T04:25:45;16.50;;;11.68;;
36213;SDS011;37652;50.400;30.628;2023-04-06T04:27:46;16.67;;;11.00;;
36213;SDS011;37652;50.400;30.628;2023-04-06T04:29:47;15.27;;;11.82;;
36213;SDS011;37652;50.400;30.628;2023-04-06T04:31:48;17.25;;;11.32;;
36213;SDS011;37652;50.400;30.628;2023-04-06T04:33:49;15.93;;;11.30;;
36213;SDS011;37652;50.400;30.628;2023-04-06T04:35:50;15.10;;;11.65;;
36213;SDS011;37652;50.400;30.628;2023-04-06T04:37:51;16.30;;;10.43;;
36213;SDS011;37652;50.400;30.628;2023-04-06T04:39:52;15.48;;;10.93;;
36213;SDS011;37652;50.400;30.628;2023-04-06T04:41:53;19.88;;;11.05;;
36213;SDS011;37652;50.400;30.628;2023-04-06T04:43:54;15.68;;;10.48;;
36213;SDS011;37652;50.400;30.628;2023-04-06T04:45:55;17.67;;;10.38;;
36213;SDS011;37652;50.400;30.628;2023-04-06T04:47:56;15.40;;;10.38;;
36213;SDS011;37652;50.400;30.628;2023-04-06T04:49:57;17.70;;;11.43;;
36213;SDS011;37652;50.400;30.628;2023-04-06T04:51:58;16.40;;;11.32;;
36213;SDS011;37652;50.400;30.628;2023-04-06T04:53:59;16.42;;;10.63;;
36213;SDS011;37652;50.400;30.628;2023-04-06T04:56:00;14.30;;;11.00;;
36213;SDS011;37652;50.400;30.628;2023-04-06T04:58:01;18.45;;;10.55;;
36213;SDS011;37652;50.400;30.628;2023-04-06T05:00:02;17.10;;;11.13;;
36213;SDS011;37652;50.400;30.628;2023-04-06T05:02:03;16.38;;;11.10;;
36213;SDS011;37652;50.400;30.628;2023-04-06T05:04:04;19.27;;;10.60;;
36213;SDS011;37652;50.400;30.628;2023-04-06T05:06:05;15.25;;;10.48;;
36213;SDS011;37652;50.400;30.628;2023-04-06T05:08:06;15.00;;;10.90;;
36213;SDS011;37652;50.400;30.628;2023-04-06T05:10:07;16.50;;;9.57;;
36213;SDS011;37652;50.400;30.628;2023-04-06T05:12:08;14.98;;;10.27;;
36213;SDS011;37652;50.400;30.628;2023-04-06T05:14:09;13.57;;;10.20;;
36213;SDS011;37652;50.400;30.628;2023-04-06T05:16:10;20.02;;;10.43;;
36213;SDS011;37652;50.400;30.628;2023-04-06T05:18:11;16.05;;;10.60;;
36213;SDS011;37652;50.400;30.628;2023-04-06T05:22:13;15.83;;;9.47;;
36213;SDS011;37652;50.400;30.628;2023-04-06T05:24:16;15.40;;;10.00;;
36213;SDS011;37652;50.400;30.628;2023-04-06T05:26:16;14.45;;;9.75;;
36213;SDS011;37652;50.400;30.628;2023-04-06T05:28:17;15.00;;;10.05;;
36213;SDS011;37652;50.400;30.628;2023-04-06T05:30:19;15.63;;;10.25;;
36213;SDS011;37652;50.400;30.628;2023-04-06T05:32:20;14.25;;;9.90;;
36213;SDS011;37652;50.400;30.628;2023-04-06T05:34:22;14.07;;;9.82;;
36213;SDS011;37652;50.400;30.628;2023-04-06T05:36:23;18.42;;;9.73;;
36213;SDS011;37652;50.400;30.628;2023-04-06T05:38:24;14.43;;;9.50;;
36213;SDS011;37652;50.400;30.628;2023-04-06T05:40:25;15.25;;;10.82;;
36213;SDS011;37652;50.400;30.628;2023-04-06T05:42:26;14.30;;;10.52;;
36213;SDS011;37652;50.400;30.628;2023-04-06T05:44:27;15.45;;;9.77;;
36213;SDS011;37652;50.400;30.628;2023-04-06T05:46:28;15.20;;;10.20;;
36213;SDS011;37652;50.400;30.628;2023-04-06T05:50:30;16.00;;;9.70;;
36213;SDS011;37652;50.400;30.628;2023-04-06T05:52:31;13.75;;;10.68;;
36213;SDS011;37652;50.400;30.628;2023-04-06T05:54:31;17.00;;;10.02;;
36213;SDS011;37652;50.400;30.628;2023-04-06T05:56:32;14.48;;;9.40;;
36213;SDS011;37652;50.400;30.628;2023-04-06T05:58:33;14.70;;;9.80;;
36213;SDS011;37652;50.400;30.628;2023-04-06T06:00:34;12.73;;;9.38;;
36213;SDS011;37652;50.400;30.628;2023-04-06T06:02:35;12.50;;;8.80;;
36213;SDS011;37652;50.400;30.628;2023-04-06T06:04:35;13.10;;;8.50;;
36213;SDS011;37652;50.400;30.628;2023-04-06T06:06:36;14.82;;;10.65;;
36213;SDS011;37652;50.400;30.628;2023-04-06T06:08:37;13.25;;;8.50;;
36213;SDS011;37652;50.400;30.628;2023-04-06T06:10:38;13.27;;;8.90;;
36213;SDS011;37652;50.400;30.628;2023-04-06T06:12:40;14.27;;;8.73;;
36213;SDS011;37652;50.400;30.628;2023-04-06T06:14:40;10.52;;;8.10;;
36213;SDS011;37652;50.400;30.628;2023-04-06T06:16:41;14.55;;;9.52;;
36213;SDS011;37652;50.400;30.628;2023-04-06T06:18:42;10.93;;;7.90;;
36213;SDS011;37652;50.400;30.628;2023-04-06T06:20:43;12.65;;;9.05;;
36213;SDS011;37652;50.400;30.628;2023-04-06T06:22:43;12.55;;;9.50;;
36213;SDS011;37652;50.400;30.628;2023-04-06T06:24:44;13.23;;;9.65;;
36213;SDS011;37652;50.400;30.628;2023-04-06T06:26:45;17.70;;;9.25;;
36213;SDS011;37652;50.400;30.628;2023-04-06T06:28:46;13.02;;;9.40;;
36213;SDS011;37652;50.400;30.628;2023-04-06T06:30:46;15.25;;;8.63;;
36213;SDS011;37652;50.400;30.628;2023-04-06T06:32:48;12.10;;;7.93;;
36213;SDS011;37652;50.400;30.628;2023-04-06T06:34:50;12.43;;;8.48;;
36213;SDS011;37652;50.400;30.628;2023-04-06T06:36:50;13.82;;;8.32;;
36213;SDS011;37652;50.400;30.628;2023-04-06T06:38:51;12.15;;;8.80;;
36213;SDS011;37652;50.400;30.628;2023-04-06T06:40:52;12.63;;;8.95;;
36213;SDS011;37652;50.400;30.628;2023-04-06T06:42:53;12.07;;;8.15;;
36213;SDS011;37652;50.400;30.628;2023-04-06T06:44:54;11.65;;;8.82;;
36213;SDS011;37652;50.400;30.628;2023-04-06T06:46:55;12.00;;;8.52;;
36213;SDS011;37652;50.400;30.628;2023-04-06T06:48:56;11.30;;;7.85;;
36213;SDS011;37652;50.400;30.628;2023-04-06T06:50:58;10.10;;;7.60;;
36213;SDS011;37652;50.400;30.628;2023-04-06T06:52:59;13.05;;;8.85;;
36213;SDS011;37652;50.400;30.628;2023-04-06T06:55:00;15.55;;;8.85;;
36213;SDS011;37652;50.400;30.628;2023-04-06T06:57:01;9.35;;;7.57;;
36213;SDS011;37652;50.400;30.628;2023-04-06T06:59:01;23.50;;;7.63;;
36213;SDS011;37652;50.400;30.628;2023-04-06T07:01:02;13.35;;;8.40;;
36213;SDS011;37652;50.400;30.628;2023-04-06T07:03:05;10.88;;;7.93;;
36213;SDS011;37652;50.400;30.628;2023-04-06T07:05:06;13.65;;;8.07;;
36213;SDS011;37652;50.400;30.628;2023-04-06T07:09:08;9.73;;;7.75;;
36213;SDS011;37652;50.400;30.628;2023-04-06T07:11:09;11.93;;;8.95;;
36213;SDS011;37652;50.400;30.628;2023-04-06T07:13:09;9.35;;;7.80;;
36213;SDS011;37652;50.400;30.628;2023-04-06T07:15:11;8.55;;;7.28;;
36213;SDS011;37652;50.400;30.628;2023-04-06T07:17:11;12.55;;;8.15;;
36213;SDS011;37652;50.400;30.628;2023-04-06T07:19:12;11.55;;;8.50;;
36213;SDS011;37652;50.400;30.628;2023-04-06T07:21:13;12.60;;;9.23;;
36213;SDS011;37652;50.400;30.628;2023-04-06T07:23:14;13.43;;;8.20;;
36213;SDS011;37652;50.400;30.628;2023-04-06T07:25:15;14.93;;;8.68;;
36213;SDS011;37652;50.400;30.628;2023-04-06T07:27:16;13.05;;;7.50;;
36213;SDS011;37652;50.400;30.628;2023-04-06T07:29:18;12.32;;;7.65;;
36213;SDS011;37652;50.400;30.628;2023-04-06T07:31:19;13.18;;;8.10;;
36213;SDS011;37652;50.400;30.628;2023-04-06T07:33:20;13.75;;;7.97;;
36213;SDS011;37652;50.400;30.628;2023-04-06T07:35:21;13.90;;;9.07;;
36213;SDS011;37652;50.400;30.628;2023-04-06T07:37:23;12.93;;;8.27;;
36213;SDS011;37652;50.400;30.628;2023-04-06T07:39:24;9.63;;;8.50;;
36213;SDS011;37652;50.400;30.628;2023-04-06T07:41:26;10.63;;;7.40;;
36213;SDS011;37652;50.400;30.628;2023-04-06T07:43:27;13.70;;;7.20;;
36213;SDS011;37652;50.400;30.628;2023-04-06T07:45:28;17.60;;;8.57;;
36213;SDS011;37652;50.400;30.628;2023-04-06T07:49:30;9.07;;;7.60;;
36213;SDS011;37652;50.400;30.628;2023-04-06T07:51:32;13.73;;;8.30;;
36213;SDS011;37652;50.400;30.628;2023-04-06T07:53:36;13.52;;;7.85;;
36213;SDS011;37652;50.400;30.628;2023-04-06T07:55:37;12.85;;;7.95;;
36213;SDS011;37652;50.400;30.628;2023-04-06T07:57:38;14.63;;;7.47;;
36213;SDS011;37652;50.400;30.628;2023-04-06T07:59:39;15.07;;;8.32;;
36213;SDS011;37652;50.400;30.628;2023-04-06T08:01:40;11.50;;;7.20;;
36213;SDS011;37652;50.400;30.628;2023-04-06T08:03:41;13.52;;;7.25;;
36213;SDS011;37652;50.400;30.628;2023-04-06T08:05:43;14.95;;;7.43;;
36213;SDS011;37652;50.400;30.628;2023-04-06T08:07:43;10.05;;;7.15;;
36213;SDS011;37652;50.400;30.628;2023-04-06T08:09:44;12.48;;;7.22;;
36213;SDS011;37652;50.400;30.628;2023-04-06T08:11:45;12.00;;;7.38;;
36213;SDS011;37652;50.400;30.628;2023-04-06T08:13:47;11.32;;;7.72;;
36213;SDS011;37652;50.400;30.628;2023-04-06T08:15:48;11.85;;;7.70;;
36213;SDS011;37652;50.400;30.628;2023-04-06T08:17:49;10.20;;;6.85;;
36213;SDS011;37652;50.400;30.628;2023-04-06T08:19:50;11.02;;;8.43;;
36213;SDS011;37652;50.400;30.628;2023-04-06T08:21:51;10.25;;;7.47;;
36213;SDS011;37652;50.400;30.628;2023-04-06T08:23:51;11.18;;;7.50;;
36213;SDS011;37652;50.400;30.628;2023-04-06T08:25:52;12.52;;;7.53;;
36213;SDS011;37652;50.400;30.628;2023-04-06T08:29:54;13.63;;;7.67;;
36213;SDS011;37652;50.400;30.628;2023-04-06T08:31:56;12.38;;;7.38;;
36213;SDS011;37652;50.400;30.628;2023-04-06T08:33:57;13.77;;;8.15;;
36213;SDS011;37652;50.400;30.628;2023-04-06T08:35:57;12.68;;;7.45;;
36213;SDS011;37652;50.400;30.628;2023-04-06T08:37:58;18.23;;;8.23;;
36213;SDS011;37652;50.400;30.628;2023-04-06T08:39:59;15.63;;;8.48;;
36213;SDS011;37652;50.400;30.628;2023-04-06T08:42:00;12.23;;;8.05;;
36213;SDS011;37652;50.400;30.628;2023-04-06T08:44:03;12.95;;;7.85;;
36213;SDS011;37652;50.400;30.628;2023-04-06T08:46:04;12.18;;;8.60;;
36213;SDS011;37652;50.400;30.628;2023-04-06T08:48:05;16.02;;;9.18;;
36213;SDS011;37652;50.400;30.628;2023-04-06T08:50:07;15.18;;;8.63;;
36213;SDS011;37652;50.400;30.628;2023-04-06T08:52:08;15.30;;;8.25;;
36213;SDS011;37652;50.400;30.628;2023-04-06T08:54:10;14.25;;;8.23;;
36213;SDS011;37652;50.400;30.628;2023-04-06T08:56:11;10.10;;;8.07;;
36213;SDS011;37652;50.400;30.628;2023-04-06T09:00:14;14.50;;;9.32;;
36213;SDS011;37652;50.400;30.628;2023-04-06T09:02:17;16.27;;;9.20;;
36213;SDS011;37652;50.400;30.628;2023-04-06T09:04:19;19.02;;;8.52;;
36213;SDS011;37652;50.400;30.628;2023-04-06T09:06:20;17.58;;;9.32;;
36213;SDS011;37652;50.400;30.628;2023-04-06T09:08:22;14.30;;;8.82;;
36213;SDS011;37652;50.400;30.628;2023-04-06T09:10:22;12.02;;;9.27;;
36213;SDS011;37652;50.400;30.628;2023-04-06T09:12:28;14.80;;;9.07;;
36213;SDS011;37652;50.400;30.628;2023-04-06T09:14:36;14.40;;;9.60;;
36213;SDS011;37652;50.400;30.628;2023-04-06T09:16:41;16.08;;;9.18;;
36213;SDS011;37652;50.400;30.628;2023-04-06T09:18:43;13.02;;;8.82;;
36213;SDS011;37652;50.400;30.628;2023-04-06T09:20:44;11.20;;;9.35;;
36213;SDS011;37652;50.400;30.628;2023-04-06T09:22:45;16.13;;;9.75;;
36213;SDS011;37652;50.400;30.628;2023-04-06T09:26:47;16.40;;;8.95;;
36213;SDS011;37652;50.400;30.628;2023-04-06T09:30:49;17.67;;;10.13;;
36213;SDS011;37652;50.400;30.628;2023-04-06T09:32:51;19.25;;;12.52;;
36213;SDS011;37652;50.400;30.628;2023-04-06T09:34:53;16.13;;;12.07;;
36213;SDS011;37652;50.400;30.628;2023-04-06T09:36:54;17.13;;;10.90;;
36213;SDS011;37652;50.400;30.628;2023-04-06T09:42:58;18.17;;;12.03;;
36213;SDS011;37652;50.400;30.628;2023-04-06T09:45:00;17.15;;;11.70;;
36213;SDS011;37652;50.400;30.628;2023-04-06T09:49:04;16.60;;;11.18;;
36213;SDS011;37652;50.400;30.628;2023-04-06T09:51:06;19.63;;;11.90;;
36213;SDS011;37652;50.400;30.628;2023-04-06T09:53:08;18.35;;;12.48;;
36213;SDS011;37652;50.400;30.628;2023-04-06T09:55:10;39.88;;;25.13;;
36213;SDS011;37652;50.400;30.628;2023-04-06T09:57:24;35.53;;;23.75;;
36213;SDS011;37652;50.400;30.628;2023-04-06T10:01:48;39.85;;;27.75;;
36213;SDS011;37652;50.400;30.628;2023-04-06T10:05:55;54.35;;;35.95;;
36213;SDS011;37652;50.400;30.628;2023-04-06T10:07:59;47.53;;;32.75;;
36213;SDS011;37652;50.400;30.628;2023-04-06T10:10:06;27.70;;;20.67;;
36213;SDS011;37652;50.400;30.628;2023-04-06T10:12:08;23.40;;;17.83;;
36213;SDS011;37652;50.400;30.628;2023-04-06T10:14:09;24.52;;;15.73;;
36213;SDS011;37652;50.400;30.628;2023-04-06T10:16:11;21.58;;;16.13;;
36213;SDS011;37652;50.400;30.628;2023-04-06T10:18:14;21.08;;;16.58;;
36213;SDS011;37652;50.400;30.628;2023-04-06T10:20:18;24.52;;;15.63;;
36213;SDS011;37652;50.400;30.628;2023-04-06T10:22:41;24.83;;;16.60;;
36213;SDS011;37652;50.400;30.628;2023-04-06T10:25:01;24.38;;;18.33;;
36213;SDS011;37652;50.400;30.628;2023-04-06T10:27:02;21.88;;;16.92;;
36213;SDS011;37652;50.400;30.628;2023-04-06T10:29:04;23.52;;;18.15;;
36213;SDS011;37652;50.400;30.628;2023-04-06T10:31:05;29.35;;;21.42;;
36213;SDS011;37652;50.400;30.628;2023-04-06T10:33:16;33.13;;;21.40;;
36213;SDS011;37652;50.400;30.628;2023-04-06T10:35:18;29.33;;;20.75;;
36213;SDS011;37652;50.400;30.628;2023-04-06T10:39:24;33.83;;;24.05;;
36213;SDS011;37652;50.400;30.628;2023-04-06T10:41:41;37.58;;;23.52;;
36213;SDS011;37652;50.400;30.628;2023-04-06T10:43:44;26.77;;;19.05;;
36213;SDS011;37652;50.400;30.628;2023-04-06T10:45:45;25.30;;;16.90;;
36213;SDS011;37652;50.400;30.628;2023-04-06T10:47:56;28.83;;;18.85;;
36213;SDS011;37652;50.400;30.628;2023-04-06T10:49:57;32.20;;;22.77;;
36213;SDS011;37652;50.400;30.628;2023-04-06T10:51:58;34.88;;;24.63;;
36213;SDS011;37652;50.400;30.628;2023-04-06T10:53:59;35.90;;;24.85;;
36213;SDS011;37652;50.400;30.628;2023-04-06T10:56:01;31.00;;;20.95;;
36213;SDS011;37652;50.400;30.628;2023-04-06T10:58:06;32.13;;;21.25;;
36213;SDS011;37652;50.400;30.628;2023-04-06T11:00:08;25.83;;;16.70;;
36213;SDS011;37652;50.400;30.628;2023-04-06T11:02:18;23.60;;;15.07;;
36213;SDS011;37652;50.400;30.628;2023-04-06T11:04:20;23.73;;;15.95;;
36213;SDS011;37652;50.400;30.628;2023-04-06T11:06:25;23.63;;;15.27;;
36213;SDS011;37652;50.400;30.628;2023-04-06T11:08:29;32.58;;;22.52;;
36213;SDS011;37652;50.400;30.628;2023-04-06T11:10:31;30.15;;;21.13;;
36213;SDS011;37652;50.400;30.628;2023-04-06T11:12:31;36.22;;;19.10;;
36213;SDS011;37652;50.400;30.628;2023-04-06T11:14:32;25.50;;;16.40;;
36213;SDS011;37652;50.400;30.628;2023-04-06T11:16:33;30.90;;;19.48;;
36213;SDS011;37652;50.400;30.628;2023-04-06T11:18:34;29.58;;;17.92;;
36213;SDS011;37652;50.400;30.628;2023-04-06T11:20:35;23.00;;;15.32;;
36213;SDS011;37652;50.400;30.628;2023-04-06T11:22:35;24.00;;;15.23;;
36213;SDS011;37652;50.400;30.628;2023-04-06T11:24:36;25.10;;;17.15;;
36213;SDS011;37652;50.400;30.628;2023-04-06T11:26:47;21.20;;;16.00;;
36213;SDS011;37652;50.400;30.628;2023-04-06T11:28:55;20.02;;;13.95;;
36213;SDS011;37652;50.400;30.628;2023-04-06T11:30:55;22.08;;;14.10;;
36213;SDS011;37652;50.400;30.628;2023-04-06T11:33:00;21.80;;;13.98;;
36213;SDS011;37652;50.400;30.628;2023-04-06T11:35:02;20.65;;;14.15;;
36213;SDS011;37652;50.400;30.628;2023-04-06T11:37:03;20.75;;;14.30;;
36213;SDS011;37652;50.400;30.628;2023-04-06T11:39:08;23.73;;;15.07;;
36213;SDS011;37652;50.400;30.628;2023-04-06T11:41:10;24.45;;;16.75;;
36213;SDS011;37652;50.400;30.628;2023-04-06T11:43:11;27.88;;;17.55;;
36213;SDS011;37652;50.400;30.628;2023-04-06T11:45:14;30.65;;;18.45;;
36213;SDS011;37652;50.400;30.628;2023-04-06T11:47:16;28.35;;;16.83;;
36213;SDS011;37652;50.400;30.628;2023-04-06T11:49:17;28.30;;;16.00;;
36213;SDS011;37652;50.400;30.628;2023-04-06T11:51:24;29.20;;;17.05;;
36213;SDS011;37652;50.400;30.628;2023-04-06T11:53:27;25.23;;;17.02;;
36213;SDS011;37652;50.400;30.628;2023-04-06T11:55:29;25.42;;;14.82;;
36213;SDS011;37652;50.400;30.628;2023-04-06T11:57:30;25.50;;;15.60;;
36213;SDS011;37652;50.400;30.628;2023-04-06T11:59:31;26.98;;;16.20;;
36213;SDS011;37652;50.400;30.628;2023-04-06T12:01:32;23.38;;;15.02;;
36213;SDS011;37652;50.400;30.628;2023-04-06T12:03:33;21.80;;;13.40;;
36213;SDS011;37652;50.400;30.628;2023-04-06T12:05:34;17.98;;;13.40;;
36213;SDS011;37652;50.400;30.628;2023-04-06T12:07:35;19.02;;;13.65;;
36213;SDS011;37652;50.400;30.628;2023-04-06T12:09:36;18.63;;;12.57;;
36213;SDS011;37652;50.400;30.628;2023-04-06T12:11:36;21.55;;;12.95;;
36213;SDS011;37652;50.400;30.628;2023-04-06T12:13:37;14.30;;;10.82;;
36213;SDS011;37652;50.400;30.628;2023-04-06T12:15:38;16.15;;;12.15;;
36213;SDS011;37652;50.400;30.628;2023-04-06T12:17:39;15.45;;;12.60;;